KGVL

Lee Gilmer Memorial Airport

Gainesville, Georgia, USA
METAR KGVL 170153Z AUTO 26004KT 10SM CLR 04/M02 A3027 RMK AO2 SLP255 T00441022
Observed Flight Rules
Dec-17 @ 01:53 UTC (23 minutes ago) Visual Flight Rules
Wind Visibility Clouds
260° at 4 knots 10 miles
  • Clear skies
Temperatures Readings
Current 4°C / 39°F
Dewpoint -2°C / 28°F
Humidity 65%
Altimeter 30.27" Hg
Pressure 1025.5 hPa
Elevation 386
METAR KGVL 170153Z AUTO 26004KT 10SM CLR 04/M02 A3027 RMK AO2 SLP255 T00441022
Observed Flight Rules
Dec-17 @ 01:53 UTC
(23 minutes ago)
VFR
Wind Visibility
260° at 4 knots 10 miles
Clouds
  • Clear skies
Temperature Dewpoint
4°C / 39°F -2°C / 28°F
Humidity Altimeter Pressure
65% 30.27" Hg 1025.5 hPa